sensor_id;sensor_type;location;lat;lon;timestamp;P1;durP1;ratioP1;P2;durP2;ratioP2
28910;SDS011;16028;42.642;23.310;2023-06-14T00:00:14;12.50;;;8.35;;
28910;SDS011;16028;42.642;23.310;2023-06-14T00:02:41;9.63;;;8.35;;
28910;SDS011;16028;42.642;23.310;2023-06-14T00:05:08;10.85;;;7.90;;
28910;SDS011;16028;42.642;23.310;2023-06-14T00:07:37;8.82;;;7.22;;
28910;SDS011;16028;42.642;23.310;2023-06-14T00:10:08;10.57;;;7.82;;
28910;SDS011;16028;42.642;23.310;2023-06-14T00:12:38;8.55;;;7.65;;
28910;SDS011;16028;42.642;23.310;2023-06-14T00:15:05;8.70;;;7.10;;
28910;SDS011;16028;42.642;23.310;2023-06-14T00:17:34;9.00;;;7.45;;
28910;SDS011;16028;42.642;23.310;2023-06-14T00:20:02;12.20;;;7.90;;
28910;SDS011;16028;42.642;23.310;2023-06-14T00:22:33;10.70;;;7.63;;
28910;SDS011;16028;42.642;23.310;2023-06-14T00:25:01;10.57;;;7.70;;
28910;SDS011;16028;42.642;23.310;2023-06-14T00:27:31;9.73;;;7.70;;
28910;SDS011;16028;42.642;23.310;2023-06-14T00:29:59;11.18;;;7.30;;
28910;SDS011;16028;42.642;23.310;2023-06-14T00:32:26;11.85;;;7.65;;
28910;SDS011;16028;42.642;23.310;2023-06-14T00:34:53;13.50;;;8.40;;
28910;SDS011;16028;42.642;23.310;2023-06-14T00:37:19;13.02;;;7.80;;
28910;SDS011;16028;42.642;23.310;2023-06-14T00:39:46;12.85;;;8.23;;
28910;SDS011;16028;42.642;23.310;2023-06-14T00:42:22;9.73;;;7.78;;
28910;SDS011;16028;42.642;23.310;2023-06-14T00:44:49;9.00;;;7.45;;
28910;SDS011;16028;42.642;23.310;2023-06-14T00:47:18;8.95;;;7.30;;
28910;SDS011;16028;42.642;23.310;2023-06-14T00:49:45;11.30;;;7.65;;
28910;SDS011;16028;42.642;23.310;2023-06-14T00:52:13;8.15;;;6.80;;
28910;SDS011;16028;42.642;23.310;2023-06-14T00:54:40;9.73;;;7.95;;
28910;SDS011;16028;42.642;23.310;2023-06-14T00:57:07;10.10;;;7.78;;
28910;SDS011;16028;42.642;23.310;2023-06-14T00:59:37;8.38;;;7.47;;
28910;SDS011;16028;42.642;23.310;2023-06-14T01:02:08;10.65;;;8.35;;
28910;SDS011;16028;42.642;23.310;2023-06-14T01:04:36;10.35;;;8.35;;
28910;SDS011;16028;42.642;23.310;2023-06-14T01:07:05;12.75;;;8.15;;
28910;SDS011;16028;42.642;23.310;2023-06-14T01:09:43;9.13;;;7.70;;
28910;SDS011;16028;42.642;23.310;2023-06-14T01:12:21;10.77;;;7.80;;
28910;SDS011;16028;42.642;23.310;2023-06-14T01:14:55;10.30;;;7.13;;
28910;SDS011;16028;42.642;23.310;2023-06-14T01:17:25;10.68;;;7.28;;
28910;SDS011;16028;42.642;23.310;2023-06-14T01:19:58;10.45;;;7.68;;
28910;SDS011;16028;42.642;23.310;2023-06-14T01:22:25;8.27;;;6.63;;
28910;SDS011;16028;42.642;23.310;2023-06-14T01:24:54;10.10;;;7.40;;
28910;SDS011;16028;42.642;23.310;2023-06-14T01:27:22;8.00;;;7.20;;
28910;SDS011;16028;42.642;23.310;2023-06-14T01:29:53;8.50;;;6.90;;
28910;SDS011;16028;42.642;23.310;2023-06-14T01:32:23;11.07;;;7.05;;
28910;SDS011;16028;42.642;23.310;2023-06-14T01:34:50;9.10;;;7.05;;
28910;SDS011;16028;42.642;23.310;2023-06-14T01:37:20;8.40;;;7.28;;
28910;SDS011;16028;42.642;23.310;2023-06-14T01:39:48;8.93;;;6.85;;
28910;SDS011;16028;42.642;23.310;2023-06-14T01:42:17;11.20;;;7.20;;
28910;SDS011;16028;42.642;23.310;2023-06-14T01:44:44;8.25;;;7.00;;
28910;SDS011;16028;42.642;23.310;2023-06-14T01:47:14;9.10;;;7.45;;
28910;SDS011;16028;42.642;23.310;2023-06-14T01:49:41;8.27;;;7.28;;
28910;SDS011;16028;42.642;23.310;2023-06-14T01:52:08;14.38;;;7.13;;
28910;SDS011;16028;42.642;23.310;2023-06-14T01:54:35;7.75;;;6.60;;
28910;SDS011;16028;42.642;23.310;2023-06-14T01:57:07;11.80;;;7.07;;
28910;SDS011;16028;42.642;23.310;2023-06-14T01:59:36;7.88;;;7.07;;
28910;SDS011;16028;42.642;23.310;2023-06-14T02:02:04;11.73;;;6.88;;
28910;SDS011;16028;42.642;23.310;2023-06-14T02:04:31;9.73;;;6.68;;
28910;SDS011;16028;42.642;23.310;2023-06-14T02:06:57;9.77;;;7.05;;
28910;SDS011;16028;42.642;23.310;2023-06-14T02:09:24;7.63;;;6.57;;
28910;SDS011;16028;42.642;23.310;2023-06-14T02:11:51;10.60;;;7.20;;
28910;SDS011;16028;42.642;23.310;2023-06-14T02:14:18;12.85;;;6.88;;
28910;SDS011;16028;42.642;23.310;2023-06-14T02:16:46;9.43;;;6.97;;
28910;SDS011;16028;42.642;23.310;2023-06-14T02:19:15;8.73;;;7.63;;
28910;SDS011;16028;42.642;23.310;2023-06-14T02:21:44;10.00;;;7.38;;
28910;SDS011;16028;42.642;23.310;2023-06-14T02:24:11;10.18;;;7.45;;
28910;SDS011;16028;42.642;23.310;2023-06-14T02:26:39;7.88;;;7.05;;
28910;SDS011;16028;42.642;23.310;2023-06-14T02:29:06;11.63;;;8.20;;
28910;SDS011;16028;42.642;23.310;2023-06-14T02:31:35;9.00;;;6.82;;
28910;SDS011;16028;42.642;23.310;2023-06-14T02:34:03;10.57;;;6.70;;
28910;SDS011;16028;42.642;23.310;2023-06-14T02:36:30;8.02;;;6.63;;
28910;SDS011;16028;42.642;23.310;2023-06-14T02:38:57;11.52;;;6.88;;
28910;SDS011;16028;42.642;23.310;2023-06-14T02:41:24;7.47;;;6.57;;
28910;SDS011;16028;42.642;23.310;2023-06-14T02:43:51;7.80;;;6.70;;
28910;SDS011;16028;42.642;23.310;2023-06-14T02:46:18;9.55;;;6.65;;
28910;SDS011;16028;42.642;23.310;2023-06-14T02:48:45;8.45;;;6.85;;
28910;SDS011;16028;42.642;23.310;2023-06-14T02:51:13;7.55;;;6.53;;
28910;SDS011;16028;42.642;23.310;2023-06-14T02:53:40;8.23;;;6.32;;
28910;SDS011;16028;42.642;23.310;2023-06-14T02:56:06;9.02;;;6.82;;
28910;SDS011;16028;42.642;23.310;2023-06-14T02:58:33;9.88;;;7.03;;
28910;SDS011;16028;42.642;23.310;2023-06-14T03:01:00;11.68;;;7.07;;
28910;SDS011;16028;42.642;23.310;2023-06-14T03:03:28;8.73;;;7.15;;
28910;SDS011;16028;42.642;23.310;2023-06-14T03:05:55;12.85;;;7.18;;
28910;SDS011;16028;42.642;23.310;2023-06-14T03:08:23;8.15;;;7.03;;
28910;SDS011;16028;42.642;23.310;2023-06-14T03:10:52;12.88;;;7.15;;
28910;SDS011;16028;42.642;23.310;2023-06-14T03:13:21;9.40;;;7.10;;
28910;SDS011;16028;42.642;23.310;2023-06-14T03:15:48;8.82;;;6.78;;
28910;SDS011;16028;42.642;23.310;2023-06-14T03:18:16;9.80;;;6.80;;
28910;SDS011;16028;42.642;23.310;2023-06-14T03:20:44;11.07;;;7.47;;
28910;SDS011;16028;42.642;23.310;2023-06-14T03:23:11;8.02;;;6.65;;
28910;SDS011;16028;42.642;23.310;2023-06-14T03:25:40;8.38;;;6.80;;
28910;SDS011;16028;42.642;23.310;2023-06-14T03:28:07;8.13;;;6.72;;
28910;SDS011;16028;42.642;23.310;2023-06-14T03:30:34;9.80;;;7.38;;
28910;SDS011;16028;42.642;23.310;2023-06-14T03:33:01;7.97;;;6.53;;
28910;SDS011;16028;42.642;23.310;2023-06-14T03:35:28;9.68;;;7.57;;
28910;SDS011;16028;42.642;23.310;2023-06-14T03:37:55;10.77;;;7.70;;
28910;SDS011;16028;42.642;23.310;2023-06-14T03:40:22;11.20;;;7.32;;
28910;SDS011;16028;42.642;23.310;2023-06-14T03:42:53;10.40;;;8.10;;
28910;SDS011;16028;42.642;23.310;2023-06-14T03:45:20;9.90;;;7.47;;
28910;SDS011;16028;42.642;23.310;2023-06-14T03:47:47;11.05;;;7.93;;
28910;SDS011;16028;42.642;23.310;2023-06-14T03:50:15;9.27;;;6.95;;
28910;SDS011;16028;42.642;23.310;2023-06-14T03:52:43;12.15;;;7.10;;
28910;SDS011;16028;42.642;23.310;2023-06-14T03:55:10;8.30;;;7.07;;
28910;SDS011;16028;42.642;23.310;2023-06-14T03:57:38;8.63;;;7.72;;
28910;SDS011;16028;42.642;23.310;2023-06-14T04:00:07;8.50;;;6.80;;
28910;SDS011;16028;42.642;23.310;2023-06-14T04:02:36;7.20;;;6.30;;
28910;SDS011;16028;42.642;23.310;2023-06-14T04:05:03;7.13;;;6.10;;
28910;SDS011;16028;42.642;23.310;2023-06-14T04:07:30;13.00;;;7.07;;
28910;SDS011;16028;42.642;23.310;2023-06-14T04:09:57;7.60;;;6.60;;
28910;SDS011;16028;42.642;23.310;2023-06-14T04:12:24;10.80;;;6.57;;
28910;SDS011;16028;42.642;23.310;2023-06-14T04:14:50;9.60;;;6.60;;
28910;SDS011;16028;42.642;23.310;2023-06-14T04:17:19;9.25;;;7.22;;
28910;SDS011;16028;42.642;23.310;2023-06-14T04:19:45;8.20;;;7.30;;
28910;SDS011;16028;42.642;23.310;2023-06-14T04:22:18;8.63;;;7.05;;
28910;SDS011;16028;42.642;23.310;2023-06-14T04:24:45;7.68;;;6.68;;
28910;SDS011;16028;42.642;23.310;2023-06-14T04:27:12;10.05;;;7.15;;
28910;SDS011;16028;42.642;23.310;2023-06-14T04:29:39;9.65;;;7.20;;
28910;SDS011;16028;42.642;23.310;2023-06-14T04:32:08;10.73;;;6.93;;
28910;SDS011;16028;42.642;23.310;2023-06-14T04:34:36;12.02;;;7.00;;
28910;SDS011;16028;42.642;23.310;2023-06-14T04:37:07;11.93;;;7.10;;
28910;SDS011;16028;42.642;23.310;2023-06-14T04:39:34;12.73;;;8.82;;
28910;SDS011;16028;42.642;23.310;2023-06-14T04:42:01;8.98;;;7.32;;
28910;SDS011;16028;42.642;23.310;2023-06-14T04:44:28;13.20;;;9.82;;
28910;SDS011;16028;42.642;23.310;2023-06-14T04:47:06;11.38;;;9.35;;
28910;SDS011;16028;42.642;23.310;2023-06-14T04:52:09;15.85;;;9.57;;
28910;SDS011;16028;42.642;23.310;2023-06-14T04:54:38;13.63;;;9.85;;
28910;SDS011;16028;42.642;23.310;2023-06-14T04:57:07;12.88;;;10.63;;
28910;SDS011;16028;42.642;23.310;2023-06-14T04:59:38;11.35;;;9.30;;
28910;SDS011;16028;42.642;23.310;2023-06-14T05:02:05;14.45;;;9.68;;
28910;SDS011;16028;42.642;23.310;2023-06-14T05:04:33;11.98;;;9.73;;
28910;SDS011;16028;42.642;23.310;2023-06-14T05:07:12;13.13;;;10.45;;
28910;SDS011;16028;42.642;23.310;2023-06-14T05:09:42;13.18;;;10.77;;
28910;SDS011;16028;42.642;23.310;2023-06-14T05:12:09;15.77;;;11.20;;
28910;SDS011;16028;42.642;23.310;2023-06-14T05:14:36;14.15;;;11.43;;
28910;SDS011;16028;42.642;23.310;2023-06-14T05:17:03;14.90;;;10.98;;
28910;SDS011;16028;42.642;23.310;2023-06-14T05:19:30;12.80;;;10.70;;
28910;SDS011;16028;42.642;23.310;2023-06-14T05:21:57;18.30;;;12.48;;
28910;SDS011;16028;42.642;23.310;2023-06-14T05:24:25;15.35;;;11.45;;
28910;SDS011;16028;42.642;23.310;2023-06-14T05:26:53;15.07;;;11.52;;
28910;SDS011;16028;42.642;23.310;2023-06-14T05:29:23;15.55;;;11.18;;
28910;SDS011;16028;42.642;23.310;2023-06-14T05:31:50;15.02;;;11.00;;
28910;SDS011;16028;42.642;23.310;2023-06-14T05:34:17;13.15;;;10.70;;
28910;SDS011;16028;42.642;23.310;2023-06-14T05:36:46;14.07;;;10.73;;
28910;SDS011;16028;42.642;23.310;2023-06-14T05:39:16;12.70;;;10.40;;
28910;SDS011;16028;42.642;23.310;2023-06-14T05:41:45;11.65;;;9.63;;
28910;SDS011;16028;42.642;23.310;2023-06-14T05:44:12;12.60;;;10.55;;
28910;SDS011;16028;42.642;23.310;2023-06-14T05:46:42;14.43;;;11.48;;
28910;SDS011;16028;42.642;23.310;2023-06-14T05:49:11;13.02;;;10.00;;
28910;SDS011;16028;42.642;23.310;2023-06-14T05:51:40;11.40;;;9.25;;
28910;SDS011;16028;42.642;23.310;2023-06-14T05:54:09;16.05;;;11.30;;
28910;SDS011;16028;42.642;23.310;2023-06-14T05:56:36;13.40;;;10.52;;
28910;SDS011;16028;42.642;23.310;2023-06-14T05:59:04;14.35;;;11.02;;
28910;SDS011;16028;42.642;23.310;2023-06-14T06:01:31;16.65;;;11.20;;
28910;SDS011;16028;42.642;23.310;2023-06-14T06:03:59;16.00;;;11.98;;
28910;SDS011;16028;42.642;23.310;2023-06-14T06:06:25;19.15;;;12.43;;
28910;SDS011;16028;42.642;23.310;2023-06-14T06:08:52;15.38;;;12.45;;
28910;SDS011;16028;42.642;23.310;2023-06-14T06:11:19;15.75;;;11.90;;
28910;SDS011;16028;42.642;23.310;2023-06-14T06:13:49;18.80;;;13.18;;
28910;SDS011;16028;42.642;23.310;2023-06-14T06:16:17;19.67;;;12.88;;
28910;SDS011;16028;42.642;23.310;2023-06-14T06:18:44;19.67;;;13.20;;
28910;SDS011;16028;42.642;23.310;2023-06-14T06:21:13;16.85;;;13.07;;
28910;SDS011;16028;42.642;23.310;2023-06-14T06:23:42;20.35;;;12.50;;
28910;SDS011;16028;42.642;23.310;2023-06-14T06:26:09;17.85;;;11.63;;
28910;SDS011;16028;42.642;23.310;2023-06-14T06:28:36;17.77;;;13.07;;
28910;SDS011;16028;42.642;23.310;2023-06-14T06:31:02;15.55;;;12.60;;
28910;SDS011;16028;42.642;23.310;2023-06-14T06:33:31;17.95;;;14.07;;
28910;SDS011;16028;42.642;23.310;2023-06-14T06:35:58;20.92;;;16.08;;
28910;SDS011;16028;42.642;23.310;2023-06-14T06:38:25;24.48;;;14.13;;
28910;SDS011;16028;42.642;23.310;2023-06-14T06:40:52;22.73;;;13.73;;
28910;SDS011;16028;42.642;23.310;2023-06-14T06:43:19;20.63;;;14.20;;
28910;SDS011;16028;42.642;23.310;2023-06-14T06:45:46;21.45;;;14.43;;
28910;SDS011;16028;42.642;23.310;2023-06-14T06:48:13;22.52;;;14.38;;
28910;SDS011;16028;42.642;23.310;2023-06-14T06:50:42;21.23;;;15.68;;
28910;SDS011;16028;42.642;23.310;2023-06-14T06:53:10;21.45;;;14.05;;
28910;SDS011;16028;42.642;23.310;2023-06-14T06:55:37;18.58;;;14.20;;
28910;SDS011;16028;42.642;23.310;2023-06-14T06:58:04;19.77;;;14.35;;
28910;SDS011;16028;42.642;23.310;2023-06-14T07:00:31;22.50;;;14.02;;
28910;SDS011;16028;42.642;23.310;2023-06-14T07:02:58;21.60;;;13.88;;
28910;SDS011;16028;42.642;23.310;2023-06-14T07:05:25;21.30;;;14.27;;
28910;SDS011;16028;42.642;23.310;2023-06-14T07:07:53;23.80;;;14.75;;
28910;SDS011;16028;42.642;23.310;2023-06-14T07:10:20;22.83;;;14.43;;
28910;SDS011;16028;42.642;23.310;2023-06-14T07:12:47;20.05;;;14.35;;
28910;SDS011;16028;42.642;23.310;2023-06-14T07:15:14;24.45;;;14.70;;
28910;SDS011;16028;42.642;23.310;2023-06-14T07:17:41;25.60;;;14.43;;
28910;SDS011;16028;42.642;23.310;2023-06-14T07:20:08;19.05;;;14.93;;
28910;SDS011;16028;42.642;23.310;2023-06-14T07:22:37;18.75;;;14.25;;
28910;SDS011;16028;42.642;23.310;2023-06-14T07:25:07;18.27;;;13.05;;
28910;SDS011;16028;42.642;23.310;2023-06-14T07:27:35;20.52;;;14.52;;
28910;SDS011;16028;42.642;23.310;2023-06-14T07:30:02;23.80;;;14.23;;
28910;SDS011;16028;42.642;23.310;2023-06-14T07:32:31;19.23;;;14.07;;
28910;SDS011;16028;42.642;23.310;2023-06-14T07:34:58;18.55;;;12.73;;
28910;SDS011;16028;42.642;23.310;2023-06-14T07:37:25;17.52;;;13.40;;
28910;SDS011;16028;42.642;23.310;2023-06-14T07:39:52;22.15;;;15.77;;
28910;SDS011;16028;42.642;23.310;2023-06-14T07:42:22;18.52;;;13.63;;
28910;SDS011;16028;42.642;23.310;2023-06-14T07:44:50;21.27;;;13.38;;
28910;SDS011;16028;42.642;23.310;2023-06-14T07:47:17;22.23;;;14.13;;
28910;SDS011;16028;42.642;23.310;2023-06-14T07:49:44;22.17;;;14.93;;
28910;SDS011;16028;42.642;23.310;2023-06-14T07:52:10;19.42;;;13.82;;
28910;SDS011;16028;42.642;23.310;2023-06-14T07:54:38;18.05;;;14.50;;
28910;SDS011;16028;42.642;23.310;2023-06-14T07:57:06;20.08;;;13.23;;
28910;SDS011;16028;42.642;23.310;2023-06-14T07:59:35;24.38;;;15.05;;
28910;SDS011;16028;42.642;23.310;2023-06-14T08:02:02;18.08;;;13.68;;
28910;SDS011;16028;42.642;23.310;2023-06-14T08:04:28;20.85;;;13.68;;
28910;SDS011;16028;42.642;23.310;2023-06-14T08:06:56;19.75;;;13.40;;
28910;SDS011;16028;42.642;23.310;2023-06-14T08:09:22;21.95;;;14.40;;
28910;SDS011;16028;42.642;23.310;2023-06-14T08:11:50;24.35;;;13.70;;
28910;SDS011;16028;42.642;23.310;2023-06-14T08:14:17;19.77;;;14.07;;
28910;SDS011;16028;42.642;23.310;2023-06-14T08:16:45;15.10;;;12.60;;
28910;SDS011;16028;42.642;23.310;2023-06-14T08:19:12;17.08;;;12.70;;
28910;SDS011;16028;42.642;23.310;2023-06-14T08:21:38;16.83;;;12.57;;
28910;SDS011;16028;42.642;23.310;2023-06-14T08:24:05;21.42;;;13.65;;
28910;SDS011;16028;42.642;23.310;2023-06-14T08:26:32;22.27;;;12.73;;
28910;SDS011;16028;42.642;23.310;2023-06-14T08:28:59;18.70;;;13.10;;
28910;SDS011;16028;42.642;23.310;2023-06-14T08:31:26;21.63;;;13.52;;
28910;SDS011;16028;42.642;23.310;2023-06-14T08:33:54;19.08;;;13.73;;
28910;SDS011;16028;42.642;23.310;2023-06-14T08:36:21;19.58;;;13.07;;
28910;SDS011;16028;42.642;23.310;2023-06-14T08:38:48;16.02;;;12.55;;
28910;SDS011;16028;42.642;23.310;2023-06-14T08:41:17;18.58;;;14.18;;
28910;SDS011;16028;42.642;23.310;2023-06-14T08:43:47;18.25;;;14.25;;
28910;SDS011;16028;42.642;23.310;2023-06-14T08:46:14;17.30;;;12.73;;
28910;SDS011;16028;42.642;23.310;2023-06-14T08:48:45;17.67;;;13.23;;
28910;SDS011;16028;42.642;23.310;2023-06-14T08:51:14;21.00;;;14.07;;
28910;SDS011;16028;42.642;23.310;2023-06-14T08:53:44;18.27;;;12.45;;
28910;SDS011;16028;42.642;23.310;2023-06-14T08:56:11;21.38;;;14.02;;
28910;SDS011;16028;42.642;23.310;2023-06-14T08:58:40;23.13;;;13.65;;
28910;SDS011;16028;42.642;23.310;2023-06-14T09:01:11;20.40;;;14.07;;
28910;SDS011;16028;42.642;23.310;2023-06-14T09:03:39;21.02;;;14.48;;
28910;SDS011;16028;42.642;23.310;2023-06-14T09:06:07;17.95;;;13.43;;
28910;SDS011;16028;42.642;23.310;2023-06-14T09:08:40;20.23;;;13.95;;
28910;SDS011;16028;42.642;23.310;2023-06-14T09:11:10;17.45;;;13.32;;
28910;SDS011;16028;42.642;23.310;2023-06-14T09:13:37;16.60;;;13.40;;
28910;SDS011;16028;42.642;23.310;2023-06-14T09:16:04;17.13;;;13.07;;
28910;SDS011;16028;42.642;23.310;2023-06-14T09:18:35;21.02;;;14.20;;
28910;SDS011;16028;42.642;23.310;2023-06-14T09:21:02;22.83;;;14.30;;
28910;SDS011;16028;42.642;23.310;2023-06-14T09:23:29;17.92;;;12.95;;
28910;SDS011;16028;42.642;23.310;2023-06-14T09:26:06;19.50;;;13.32;;
28910;SDS011;16028;42.642;23.310;2023-06-14T09:28:34;20.48;;;13.15;;
28910;SDS011;16028;42.642;23.310;2023-06-14T09:31:01;20.88;;;16.60;;
28910;SDS011;16028;42.642;23.310;2023-06-14T09:33:33;18.05;;;13.77;;
28910;SDS011;16028;42.642;23.310;2023-06-14T09:36:00;18.75;;;13.60;;
28910;SDS011;16028;42.642;23.310;2023-06-14T09:38:27;17.90;;;13.20;;
28910;SDS011;16028;42.642;23.310;2023-06-14T09:40:55;22.42;;;13.48;;
28910;SDS011;16028;42.642;23.310;2023-06-14T09:43:24;18.10;;;13.80;;
28910;SDS011;16028;42.642;23.310;2023-06-14T09:45:52;17.73;;;14.45;;
28910;SDS011;16028;42.642;23.310;2023-06-14T09:48:20;15.50;;;13.60;;
28910;SDS011;16028;42.642;23.310;2023-06-14T09:50:47;20.75;;;14.43;;
28910;SDS011;16028;42.642;23.310;2023-06-14T09:53:16;17.60;;;13.88;;
28910;SDS011;16028;42.642;23.310;2023-06-14T09:55:49;17.70;;;13.90;;
28910;SDS011;16028;42.642;23.310;2023-06-14T09:58:17;18.10;;;14.32;;
28910;SDS011;16028;42.642;23.310;2023-06-14T10:00:47;16.90;;;13.05;;
28910;SDS011;16028;42.642;23.310;2023-06-14T10:03:19;21.42;;;13.30;;
28910;SDS011;16028;42.642;23.310;2023-06-14T10:05:50;17.77;;;12.55;;
28910;SDS011;16028;42.642;23.310;2023-06-14T10:08:18;17.13;;;13.77;;
28910;SDS011;16028;42.642;23.310;2023-06-14T10:10:50;22.00;;;14.93;;
28910;SDS011;16028;42.642;23.310;2023-06-14T10:13:17;19.38;;;13.70;;
28910;SDS011;16028;42.642;23.310;2023-06-14T10:15:50;14.85;;;13.00;;
28910;SDS011;16028;42.642;23.310;2023-06-14T10:18:27;17.70;;;13.95;;
28910;SDS011;16028;42.642;23.310;2023-06-14T10:21:04;17.42;;;13.63;;
28910;SDS011;16028;42.642;23.310;2023-06-14T10:23:40;20.38;;;12.88;;
28910;SDS011;16028;42.642;23.310;2023-06-14T10:26:09;18.00;;;13.45;;
28910;SDS011;16028;42.642;23.310;2023-06-14T10:28:54;16.67;;;13.20;;
28910;SDS011;16028;42.642;23.310;2023-06-14T10:31:24;18.85;;;13.02;;
28910;SDS011;16028;42.642;23.310;2023-06-14T10:34:06;19.98;;;12.75;;
28910;SDS011;16028;42.642;23.310;2023-06-14T10:36:33;19.67;;;13.35;;
28910;SDS011;16028;42.642;23.310;2023-06-14T10:39:01;17.88;;;13.48;;
28910;SDS011;16028;42.642;23.310;2023-06-14T10:41:34;19.83;;;14.38;;
28910;SDS011;16028;42.642;23.310;2023-06-14T10:44:10;19.48;;;14.25;;
28910;SDS011;16028;42.642;23.310;2023-06-14T10:46:53;22.13;;;12.98;;
28910;SDS011;16028;42.642;23.310;2023-06-14T10:49:36;16.17;;;12.65;;
28910;SDS011;16028;42.642;23.310;2023-06-14T10:52:07;17.60;;;13.70;;
28910;SDS011;16028;42.642;23.310;2023-06-14T10:54:34;15.55;;;13.82;;
28910;SDS011;16028;42.642;23.310;2023-06-14T10:57:01;18.27;;;13.32;;
28910;SDS011;16028;42.642;23.310;2023-06-14T10:59:28;20.00;;;12.95;;
28910;SDS011;16028;42.642;23.310;2023-06-14T11:01:57;13.70;;;12.00;;
28910;SDS011;16028;42.642;23.310;2023-06-14T11:04:46;16.77;;;11.18;;
28910;SDS011;16028;42.642;23.310;2023-06-14T11:07:21;15.38;;;11.73;;
28910;SDS011;16028;42.642;23.310;2023-06-14T11:10:10;15.13;;;11.27;;
28910;SDS011;16028;42.642;23.310;2023-06-14T11:12:49;21.73;;;11.75;;
28910;SDS011;16028;42.642;23.310;2023-06-14T11:15:19;13.77;;;11.90;;
28910;SDS011;16028;42.642;23.310;2023-06-14T11:17:51;20.65;;;12.48;;
28910;SDS011;16028;42.642;23.310;2023-06-14T11:20:18;15.95;;;11.82;;
28910;SDS011;16028;42.642;23.310;2023-06-14T11:22:45;15.20;;;11.75;;
28910;SDS011;16028;42.642;23.310;2023-06-14T11:25:13;15.55;;;11.20;;
28910;SDS011;16028;42.642;23.310;2023-06-14T11:27:41;13.88;;;11.32;;
28910;SDS011;16028;42.642;23.310;2023-06-14T11:30:08;14.05;;;11.23;;
28910;SDS011;16028;42.642;23.310;2023-06-14T11:32:36;14.13;;;11.05;;
28910;SDS011;16028;42.642;23.310;2023-06-14T11:35:05;17.83;;;11.43;;
28910;SDS011;16028;42.642;23.310;2023-06-14T11:37:33;14.27;;;10.77;;
28910;SDS011;16028;42.642;23.310;2023-06-14T11:40:00;12.65;;;11.35;;
28910;SDS011;16028;42.642;23.310;2023-06-14T11:42:30;14.60;;;11.20;;
28910;SDS011;16028;42.642;23.310;2023-06-14T11:44:57;12.30;;;10.18;;
28910;SDS011;16028;42.642;23.310;2023-06-14T11:47:30;11.80;;;9.80;;
28910;SDS011;16028;42.642;23.310;2023-06-14T11:50:01;14.45;;;9.43;;
28910;SDS011;16028;42.642;23.310;2023-06-14T11:52:29;12.65;;;9.07;;
28910;SDS011;16028;42.642;23.310;2023-06-14T11:54:57;10.45;;;9.30;;
28910;SDS011;16028;42.642;23.310;2023-06-14T11:57:24;12.98;;;9.07;;
28910;SDS011;16028;42.642;23.310;2023-06-14T11:59:52;10.75;;;9.02;;
28910;SDS011;16028;42.642;23.310;2023-06-14T12:02:21;13.05;;;9.35;;
28910;SDS011;16028;42.642;23.310;2023-06-14T12:04:50;9.95;;;8.88;;
28910;SDS011;16028;42.642;23.310;2023-06-14T12:07:17;13.40;;;9.43;;
28910;SDS011;16028;42.642;23.310;2023-06-14T12:12:36;17.98;;;9.98;;
28910;SDS011;16028;42.642;23.310;2023-06-14T12:15:04;13.20;;;9.02;;
28910;SDS011;16028;42.642;23.310;2023-06-14T12:17:32;10.13;;;8.32;;
28910;SDS011;16028;42.642;23.310;2023-06-14T12:20:05;12.75;;;8.98;;
28910;SDS011;16028;42.642;23.310;2023-06-14T12:22:36;13.48;;;8.57;;
28910;SDS011;16028;42.642;23.310;2023-06-14T12:25:03;10.30;;;9.05;;
28910;SDS011;16028;42.642;23.310;2023-06-14T12:27:32;9.30;;;8.30;;
28910;SDS011;16028;42.642;23.310;2023-06-14T12:29:59;14.80;;;8.75;;
28910;SDS011;16028;42.642;23.310;2023-06-14T12:32:27;9.77;;;8.40;;
28910;SDS011;16028;42.642;23.310;2023-06-14T12:34:54;10.82;;;8.57;;
28910;SDS011;16028;42.642;23.310;2023-06-14T12:37:21;9.57;;;8.57;;
28910;SDS011;16028;42.642;23.310;2023-06-14T12:39:47;10.13;;;8.48;;
28910;SDS011;16028;42.642;23.310;2023-06-14T12:42:16;9.30;;;7.80;;
28910;SDS011;16028;42.642;23.310;2023-06-14T12:44:44;10.40;;;8.55;;
28910;SDS011;16028;42.642;23.310;2023-06-14T12:47:11;8.93;;;8.02;;
28910;SDS011;16028;42.642;23.310;2023-06-14T12:49:39;9.95;;;8.32;;
28910;SDS011;16028;42.642;23.310;2023-06-14T12:52:07;11.93;;;8.27;;
28910;SDS011;16028;42.642;23.310;2023-06-14T12:54:34;14.02;;;7.63;;
28910;SDS011;16028;42.642;23.310;2023-06-14T12:57:01;9.00;;;7.78;;
28910;SDS011;16028;42.642;23.310;2023-06-14T12:59:28;11.20;;;8.52;;
28910;SDS011;16028;42.642;23.310;2023-06-14T13:01:59;11.23;;;8.50;;
28910;SDS011;16028;42.642;23.310;2023-06-14T13:04:36;11.25;;;8.90;;
28910;SDS011;16028;42.642;23.310;2023-06-14T13:07:03;10.57;;;8.52;;
28910;SDS011;16028;42.642;23.310;2023-06-14T13:09:30;11.82;;;8.63;;
28910;SDS011;16028;42.642;23.310;2023-06-14T13:11:57;16.33;;;9.13;;
28910;SDS011;16028;42.642;23.310;2023-06-14T13:14:24;13.48;;;9.18;;
28910;SDS011;16028;42.642;23.310;2023-06-14T13:16:51;10.88;;;9.57;;
28910;SDS011;16028;42.642;23.310;2023-06-14T13:19:19;13.32;;;9.40;;
28910;SDS011;16028;42.642;23.310;2023-06-14T13:21:46;13.45;;;9.10;;
28910;SDS011;16028;42.642;23.310;2023-06-14T13:24:13;11.48;;;9.18;;
28910;SDS011;16028;42.642;23.310;2023-06-14T13:26:40;13.07;;;9.65;;
28910;SDS011;16028;42.642;23.310;2023-06-14T13:29:07;10.48;;;8.00;;
28910;SDS011;16028;42.642;23.310;2023-06-14T13:31:34;13.48;;;8.88;;
28910;SDS011;16028;42.642;23.310;2023-06-14T13:34:01;17.15;;;8.68;;
28910;SDS011;16028;42.642;23.310;2023-06-14T13:36:29;13.52;;;8.98;;
28910;SDS011;16028;42.642;23.310;2023-06-14T13:38:56;12.20;;;9.23;;
28910;SDS011;16028;42.642;23.310;2023-06-14T13:41:25;13.18;;;9.20;;
28910;SDS011;16028;42.642;23.310;2023-06-14T13:43:56;10.80;;;9.18;;
28910;SDS011;16028;42.642;23.310;2023-06-14T13:46:23;12.35;;;9.27;;
28910;SDS011;16028;42.642;23.310;2023-06-14T13:48:50;11.40;;;9.07;;
28910;SDS011;16028;42.642;23.310;2023-06-14T13:51:17;11.13;;;9.50;;
28910;SDS011;16028;42.642;23.310;2023-06-14T13:53:47;14.95;;;9.40;;
28910;SDS011;16028;42.642;23.310;2023-06-14T13:56:15;10.93;;;9.57;;
28910;SDS011;16028;42.642;23.310;2023-06-14T13:58:43;12.10;;;9.77;;
28910;SDS011;16028;42.642;23.310;2023-06-14T14:01:11;10.05;;;8.73;;
28910;SDS011;16028;42.642;23.310;2023-06-14T14:03:38;12.13;;;8.55;;
28910;SDS011;16028;42.642;23.310;2023-06-14T14:06:05;13.05;;;8.45;;
28910;SDS011;16028;42.642;23.310;2023-06-14T14:08:32;9.25;;;8.20;;
28910;SDS011;16028;42.642;23.310;2023-06-14T14:11:01;12.05;;;8.40;;
28910;SDS011;16028;42.642;23.310;2023-06-14T14:13:30;10.63;;;7.65;;
28910;SDS011;16028;42.642;23.310;2023-06-14T14:15:57;9.13;;;7.57;;
28910;SDS011;16028;42.642;23.310;2023-06-14T14:18:24;10.88;;;7.70;;
28910;SDS011;16028;42.642;23.310;2023-06-14T14:20:51;10.30;;;7.60;;
28910;SDS011;16028;42.642;23.310;2023-06-14T14:23:17;8.43;;;6.88;;
28910;SDS011;16028;42.642;23.310;2023-06-14T14:25:53;7.90;;;6.45;;
28910;SDS011;16028;42.642;23.310;2023-06-14T14:28:24;7.05;;;6.18;;
28910;SDS011;16028;42.642;23.310;2023-06-14T14:30:51;7.50;;;5.97;;